Accueil
METAR-TAF:

METAR-TAF

Aéroports :

Orange, France

Base aérienne 115 Orange-Caritat

latitude: 44-08N, longitude: 004-50E, altitude: 60 m

Observation

Le bulletin a été fait il y a 27 minutes, à 17:00 UTC
Vent 7 kt de sud
Température 23°C
Humidité 29%
Pression 1017 hPa
Visibilité 10 km ou plus
pas de nuages en-dessous de 1500 mètres et pas de cumulonimbus.

METAR: LFMO 211700Z AUTO 18007KT CAVOK 23/04 Q1017 NOSIG

Heure: 19:27 (17:27 UTC)

Prévision

Le bulletin a été fait il y a 3 heures et 27 minutes, à 14:00 UTC
Prévision valable du 21 à 15 UTC au 22 à 15 UTC
Vent 8 kt de sud-ouest
Visibilité 10 km ou plus
pas de nuages en-dessous de 1500 mètres et pas de cumulonimbus.
Evoluant progressivement
du 21 à 18 UTC au 21 à 20 UTC
Vent 2 kt de direction variable
Temporairement
du 21 à 21 UTC au 22 à 08 UTC
Nuages fragmentés à une hauteur de 500 ft

TAF: LFMO 211400Z 2115/2215 22008KT CAVOK BECMG 2118/2120 VRB02KT TEMPO 2121/2208 BKN005

Observations et prévisions météorologiques de plus de 4000 aéroports (messages METAR et TAF).

Les stations disponibles sont représentées par des disques jaunes et rouges sur la carte.

Passer la souris dessus pour voir le nom de la station.

Cliquer dessus pour voir les observations et prévisions météorologiques.

Pour changer de carte: cliquez sur les boutons verts avec une croix noire pour zoomer, sur le bouton vert avec un tiret pour effectuer un zoom arrière, ou sur les flèches vertes pour les cartes adjacentes.


METAR-TAF: